Hilldale, Pennsylvania
Current Conditions -  °F | °C
As of 2:54 PM on Wednesday 17 Dec 2014 (Local Time) from KAVP Reporting Station
Light Rain Light Rain  
Wind Chill: 37°   Ceiling: 3000
Heat Index: 43°   Visibility: 10mi
Dew Point: 37°   Wind: 10mph
Humidity: 80%   Direction: 260°W
Pressure: 29.86"   Gusts: NA
Location:  41.2711°N, 75.8417°W
Report Text: KAVP 171954Z 26009KT 10SM -RA SCT022 BKN030 OVC046 06/03 A2986 RMK AO2 RAB03 SLP113 P0001 T00610028
Loading
Personal Weather Stations






























Interactive Weather Map New forecast layout! Learn more

10-Day Weather Forecast

Advertisements
Track Severe Weather on mobile